sensor_id;sensor_type;location;lat;lon;timestamp;temperature;humidity
44707;DHT22;30433;45.596;8.408;2023-02-05T00:04:43;5.60;93.20
44707;DHT22;30433;45.596;8.408;2023-02-05T00:10:49;5.30;93.30
44707;DHT22;30433;45.596;8.408;2023-02-05T00:16:52;5.80;93.90
44707;DHT22;30433;45.596;8.408;2023-02-05T00:22:54;5.60;93.60
44707;DHT22;30433;45.596;8.408;2023-02-05T00:28:56;4.80;93.60
44707;DHT22;30433;45.596;8.408;2023-02-05T00:34:59;4.90;93.60
44707;DHT22;30433;45.596;8.408;2023-02-05T00:41:01;4.40;94.50
44707;DHT22;30433;45.596;8.408;2023-02-05T00:47:03;4.60;94.30
44707;DHT22;30433;45.596;8.408;2023-02-05T00:53:06;4.20;94.80
44707;DHT22;30433;45.596;8.408;2023-02-05T00:59:08;4.50;95.70
44707;DHT22;30433;45.596;8.408;2023-02-05T01:05:10;4.70;95.50
44707;DHT22;30433;45.596;8.408;2023-02-05T01:11:13;5.00;94.50
44707;DHT22;30433;45.596;8.408;2023-02-05T01:17:15;4.20;94.40
44707;DHT22;30433;45.596;8.408;2023-02-05T01:23:17;4.20;94.40
44707;DHT22;30433;45.596;8.408;2023-02-05T01:29:20;4.40;95.00
44707;DHT22;30433;45.596;8.408;2023-02-05T01:35:22;3.70;94.90
44707;DHT22;30433;45.596;8.408;2023-02-05T01:41:23;3.50;95.20
44707;DHT22;30433;45.596;8.408;2023-02-05T01:47:27;4.30;94.50
44707;DHT22;30433;45.596;8.408;2023-02-05T01:53:29;4.20;95.20
44707;DHT22;30433;45.596;8.408;2023-02-05T01:59:32;4.20;94.80
44707;DHT22;30433;45.596;8.408;2023-02-05T02:05:36;4.10;95.20
44707;DHT22;30433;45.596;8.408;2023-02-05T02:11:39;4.10;94.40
44707;DHT22;30433;45.596;8.408;2023-02-05T02:17:42;3.20;94.80
44707;DHT22;30433;45.596;8.408;2023-02-05T02:23:51;3.80;95.30
44707;DHT22;30433;45.596;8.408;2023-02-05T02:29:56;4.00;95.60
44707;DHT22;30433;45.596;8.408;2023-02-05T02:35:59;4.10;95.40
44707;DHT22;30433;45.596;8.408;2023-02-05T02:42:03;3.10;94.60
44707;DHT22;30433;45.596;8.408;2023-02-05T02:48:07;3.40;95.50
44707;DHT22;30433;45.596;8.408;2023-02-05T02:54:11;4.40;94.40
44707;DHT22;30433;45.596;8.408;2023-02-05T03:00:14;4.60;93.50
44707;DHT22;30433;45.596;8.408;2023-02-05T03:06:18;4.70;93.30
44707;DHT22;30433;45.596;8.408;2023-02-05T03:12:21;4.70;92.90
44707;DHT22;30433;45.596;8.408;2023-02-05T03:18:23;4.70;92.80
44707;DHT22;30433;45.596;8.408;2023-02-05T03:24:26;4.50;92.80
44707;DHT22;30433;45.596;8.408;2023-02-05T03:30:28;4.90;92.40
44707;DHT22;30433;45.596;8.408;2023-02-05T03:36:33;4.30;92.40
44707;DHT22;30433;45.596;8.408;2023-02-05T03:42:39;3.50;94.00
44707;DHT22;30433;45.596;8.408;2023-02-05T03:48:49;3.80;94.10
44707;DHT22;30433;45.596;8.408;2023-02-05T03:54:55;3.50;94.60
44707;DHT22;30433;45.596;8.408;2023-02-05T04:00:59;3.40;94.90
44707;DHT22;30433;45.596;8.408;2023-02-05T04:07:01;3.30;95.10
44707;DHT22;30433;45.596;8.408;2023-02-05T04:13:04;3.10;95.20
44707;DHT22;30433;45.596;8.408;2023-02-05T04:19:07;2.70;95.60
44707;DHT22;30433;45.596;8.408;2023-02-05T04:25:08;2.90;95.40
44707;DHT22;30433;45.596;8.408;2023-02-05T04:31:10;2.90;94.90
44707;DHT22;30433;45.596;8.408;2023-02-05T04:37:14;2.80;95.20
44707;DHT22;30433;45.596;8.408;2023-02-05T04:43:15;2.80;95.20
44707;DHT22;30433;45.596;8.408;2023-02-05T04:49:17;2.80;95.10
44707;DHT22;30433;45.596;8.408;2023-02-05T04:55:20;2.40;95.40
44707;DHT22;30433;45.596;8.408;2023-02-05T05:01:22;2.80;95.10
44707;DHT22;30433;45.596;8.408;2023-02-05T05:07:24;2.70;95.80
44707;DHT22;30433;45.596;8.408;2023-02-05T05:13:27;2.50;95.90
44707;DHT22;30433;45.596;8.408;2023-02-05T05:19:29;2.20;95.70
44707;DHT22;30433;45.596;8.408;2023-02-05T05:25:31;2.10;95.30
44707;DHT22;30433;45.596;8.408;2023-02-05T05:31:34;2.40;95.70
44707;DHT22;30433;45.596;8.408;2023-02-05T05:37:35;2.30;95.90
44707;DHT22;30433;45.596;8.408;2023-02-05T05:43:37;2.60;95.70
44707;DHT22;30433;45.596;8.408;2023-02-05T05:49:49;2.80;95.60
44707;DHT22;30433;45.596;8.408;2023-02-05T05:55:51;3.10;95.00
44707;DHT22;30433;45.596;8.408;2023-02-05T06:01:53;2.60;95.10
44707;DHT22;30433;45.596;8.408;2023-02-05T06:07:56;2.30;94.70
44707;DHT22;30433;45.596;8.408;2023-02-05T06:13:58;2.10;96.20
44707;DHT22;30433;45.596;8.408;2023-02-05T06:20:00;1.80;95.40
44707;DHT22;30433;45.596;8.408;2023-02-05T06:26:03;2.30;95.60
44707;DHT22;30433;45.596;8.408;2023-02-05T06:32:05;1.60;95.40
44707;DHT22;30433;45.596;8.408;2023-02-05T06:38:07;1.30;95.10
44707;DHT22;30433;45.596;8.408;2023-02-05T06:44:10;1.60;95.70
44707;DHT22;30433;45.596;8.408;2023-02-05T06:50:12;1.50;95.40
44707;DHT22;30433;45.596;8.408;2023-02-05T06:56:13;1.10;95.60
44707;DHT22;30433;45.596;8.408;2023-02-05T07:02:17;1.50;95.40
44707;DHT22;30433;45.596;8.408;2023-02-05T07:08:18;1.70;96.40
44707;DHT22;30433;45.596;8.408;2023-02-05T07:14:20;2.20;96.00
44707;DHT22;30433;45.596;8.408;2023-02-05T07:20:23;2.60;95.70
44707;DHT22;30433;45.596;8.408;2023-02-05T07:26:25;2.40;95.50
44707;DHT22;30433;45.596;8.408;2023-02-05T07:32:27;2.70;95.70
44707;DHT22;30433;45.596;8.408;2023-02-05T07:38:30;3.10;95.50
44707;DHT22;30433;45.596;8.408;2023-02-05T07:44:32;3.20;95.60
44707;DHT22;30433;45.596;8.408;2023-02-05T07:50:34;3.50;95.30
44707;DHT22;30433;45.596;8.408;2023-02-05T07:56:37;3.60;95.20
44707;DHT22;30433;45.596;8.408;2023-02-05T08:02:39;3.90;94.60
44707;DHT22;30433;45.596;8.408;2023-02-05T08:08:40;4.30;94.70
44707;DHT22;30433;45.596;8.408;2023-02-05T08:14:44;4.50;94.70
44707;DHT22;30433;45.596;8.408;2023-02-05T08:20:45;4.80;94.20
44707;DHT22;30433;45.596;8.408;2023-02-05T08:26:47;5.10;94.30
44707;DHT22;30433;45.596;8.408;2023-02-05T08:32:50;5.30;94.30
44707;DHT22;30433;45.596;8.408;2023-02-05T08:38:52;5.50;93.90
44707;DHT22;30433;45.596;8.408;2023-02-05T08:44:54;6.00;92.80
44707;DHT22;30433;45.596;8.408;2023-02-05T08:50:59;6.10;92.30
44707;DHT22;30433;45.596;8.408;2023-02-05T08:57:01;6.10;92.20
44707;DHT22;30433;45.596;8.408;2023-02-05T09:03:02;6.20;91.90
44707;DHT22;30433;45.596;8.408;2023-02-05T09:09:07;6.20;91.70
44707;DHT22;30433;45.596;8.408;2023-02-05T09:15:09;6.40;92.40
44707;DHT22;30433;45.596;8.408;2023-02-05T09:21:12;6.80;91.80
44707;DHT22;30433;45.596;8.408;2023-02-05T09:27:15;6.40;91.70
44707;DHT22;30433;45.596;8.408;2023-02-05T09:33:17;6.70;92.00
44707;DHT22;30433;45.596;8.408;2023-02-05T09:39:19;6.50;91.90
44707;DHT22;30433;45.596;8.408;2023-02-05T09:45:29;6.80;91.70
44707;DHT22;30433;45.596;8.408;2023-02-05T09:51:34;6.90;91.80
44707;DHT22;30433;45.596;8.408;2023-02-05T09:57:37;6.70;91.50
44707;DHT22;30433;45.596;8.408;2023-02-05T10:03:43;6.90;91.70
44707;DHT22;30433;45.596;8.408;2023-02-05T10:10:08;6.90;91.30
44707;DHT22;30433;45.596;8.408;2023-02-05T10:22:44;7.40;91.40
44707;DHT22;30433;45.596;8.408;2023-02-05T10:28:57;7.10;91.30
44707;DHT22;30433;45.596;8.408;2023-02-05T10:35:07;7.60;91.60
44707;DHT22;30433;45.596;8.408;2023-02-05T10:41:18;7.80;91.40
44707;DHT22;30433;45.596;8.408;2023-02-05T10:47:39;7.50;90.90
44707;DHT22;30433;45.596;8.408;2023-02-05T10:53:43;7.80;91.90
44707;DHT22;30433;45.596;8.408;2023-02-05T10:59:48;8.10;91.50
44707;DHT22;30433;45.596;8.408;2023-02-05T11:05:52;7.60;90.90
44707;DHT22;30433;45.596;8.408;2023-02-05T11:11:54;7.80;91.10
44707;DHT22;30433;45.596;8.408;2023-02-05T11:17:58;8.30;91.70
44707;DHT22;30433;45.596;8.408;2023-02-05T11:24:01;8.40;91.20
44707;DHT22;30433;45.596;8.408;2023-02-05T11:30:16;7.70;90.70
44707;DHT22;30433;45.596;8.408;2023-02-05T11:36:20;8.50;91.30
44707;DHT22;30433;45.596;8.408;2023-02-05T11:42:23;7.60;90.30
44707;DHT22;30433;45.596;8.408;2023-02-05T11:48:29;8.10;91.20
44707;DHT22;30433;45.596;8.408;2023-02-05T11:54:35;8.40;91.80
44707;DHT22;30433;45.596;8.408;2023-02-05T12:00:38;8.20;91.20
44707;DHT22;30433;45.596;8.408;2023-02-05T12:06:51;8.50;90.80
44707;DHT22;30433;45.596;8.408;2023-02-05T12:12:58;8.70;91.40
44707;DHT22;30433;45.596;8.408;2023-02-05T12:19:08;8.60;92.10
44707;DHT22;30433;45.596;8.408;2023-02-05T12:25:15;8.90;91.40
44707;DHT22;30433;45.596;8.408;2023-02-05T12:31:25;8.80;91.70
44707;DHT22;30433;45.596;8.408;2023-02-05T12:37:31;9.10;91.20
44707;DHT22;30433;45.596;8.408;2023-02-05T12:43:36;8.60;90.60
44707;DHT22;30433;45.596;8.408;2023-02-05T12:49:44;9.20;90.80
44707;DHT22;30433;45.596;8.408;2023-02-05T12:55:50;9.20;91.20
44707;DHT22;30433;45.596;8.408;2023-02-05T13:01:58;9.40;90.80
44707;DHT22;30433;45.596;8.408;2023-02-05T13:08:04;8.70;90.00
44707;DHT22;30433;45.596;8.408;2023-02-05T13:14:08;8.70;90.10
44707;DHT22;30433;45.596;8.408;2023-02-05T13:20:16;9.60;90.80
44707;DHT22;30433;45.596;8.408;2023-02-05T13:26:23;8.80;90.20
44707;DHT22;30433;45.596;8.408;2023-02-05T13:32:46;9.10;90.50
44707;DHT22;30433;45.596;8.408;2023-02-05T13:38:53;9.80;90.20
44707;DHT22;30433;45.596;8.408;2023-02-05T13:45:14;9.10;89.10
44707;DHT22;30433;45.596;8.408;2023-02-05T13:51:35;9.30;88.90
44707;DHT22;30433;45.596;8.408;2023-02-05T13:57:59;9.00;87.10
44707;DHT22;30433;45.596;8.408;2023-02-05T14:04:14;8.80;86.50
44707;DHT22;30433;45.596;8.408;2023-02-05T14:10:23;9.60;87.20
44707;DHT22;30433;45.596;8.408;2023-02-05T14:16:33;9.00;87.00
44707;DHT22;30433;45.596;8.408;2023-02-05T14:22:38;9.10;87.10
44707;DHT22;30433;45.596;8.408;2023-02-05T14:28:45;9.00;88.00
44707;DHT22;30433;45.596;8.408;2023-02-05T14:34:47;9.70;87.10
44707;DHT22;30433;45.596;8.408;2023-02-05T14:41:03;9.60;88.10
44707;DHT22;30433;45.596;8.408;2023-02-05T14:47:16;8.80;85.80
44707;DHT22;30433;45.596;8.408;2023-02-05T14:53:20;8.80;85.80
44707;DHT22;30433;45.596;8.408;2023-02-05T14:59:27;8.70;86.80
44707;DHT22;30433;45.596;8.408;2023-02-05T15:05:30;8.90;86.20
44707;DHT22;30433;45.596;8.408;2023-02-05T15:11:36;8.60;85.80
44707;DHT22;30433;45.596;8.408;2023-02-05T15:17:50;8.80;85.90
44707;DHT22;30433;45.596;8.408;2023-02-05T15:23:58;8.90;85.80
44707;DHT22;30433;45.596;8.408;2023-02-05T15:30:00;8.50;85.60
44707;DHT22;30433;45.596;8.408;2023-02-05T15:36:11;8.30;85.80
44707;DHT22;30433;45.596;8.408;2023-02-05T15:42:17;8.20;85.50
44707;DHT22;30433;45.596;8.408;2023-02-05T15:48:21;8.10;85.50
44707;DHT22;30433;45.596;8.408;2023-02-05T15:54:25;8.00;85.30
44707;DHT22;30433;45.596;8.408;2023-02-05T16:00:28;7.90;85.70
44707;DHT22;30433;45.596;8.408;2023-02-05T16:06:34;7.90;86.30
44707;DHT22;30433;45.596;8.408;2023-02-05T16:12:38;7.70;85.90
44707;DHT22;30433;45.596;8.408;2023-02-05T16:18:40;7.60;86.40
44707;DHT22;30433;45.596;8.408;2023-02-05T16:24:44;7.60;86.30
44707;DHT22;30433;45.596;8.408;2023-02-05T16:30:50;7.40;86.30
44707;DHT22;30433;45.596;8.408;2023-02-05T16:36:52;7.30;86.70
44707;DHT22;30433;45.596;8.408;2023-02-05T16:42:58;7.10;86.80
44707;DHT22;30433;45.596;8.408;2023-02-05T16:49:02;7.10;87.50
44707;DHT22;30433;45.596;8.408;2023-02-05T16:55:05;6.90;86.90
44707;DHT22;30433;45.596;8.408;2023-02-05T17:01:07;6.90;87.50
44707;DHT22;30433;45.596;8.408;2023-02-05T17:07:16;6.90;87.70
44707;DHT22;30433;45.596;8.408;2023-02-05T17:13:25;6.70;87.50
44707;DHT22;30433;45.596;8.408;2023-02-05T17:19:28;6.70;87.80
44707;DHT22;30433;45.596;8.408;2023-02-05T17:25:33;6.70;87.60
44707;DHT22;30433;45.596;8.408;2023-02-05T17:31:35;6.70;87.60
44707;DHT22;30433;45.596;8.408;2023-02-05T17:37:38;6.70;87.40
44707;DHT22;30433;45.596;8.408;2023-02-05T17:43:41;6.60;87.40
44707;DHT22;30433;45.596;8.408;2023-02-05T17:49:43;6.60;88.10
44707;DHT22;30433;45.596;8.408;2023-02-05T17:55:45;6.70;89.30
44707;DHT22;30433;45.596;8.408;2023-02-05T18:01:49;6.90;88.10
44707;DHT22;30433;45.596;8.408;2023-02-05T18:07:52;6.50;87.90
44707;DHT22;30433;45.596;8.408;2023-02-05T18:13:55;6.80;88.70
44707;DHT22;30433;45.596;8.408;2023-02-05T18:19:59;6.90;89.80
44707;DHT22;30433;45.596;8.408;2023-02-05T18:26:01;6.40;90.30
44707;DHT22;30433;45.596;8.408;2023-02-05T18:32:04;6.60;90.50
44707;DHT22;30433;45.596;8.408;2023-02-05T18:38:08;6.60;90.60
44707;DHT22;30433;45.596;8.408;2023-02-05T18:44:10;6.40;90.70
44707;DHT22;30433;45.596;8.408;2023-02-05T18:50:11;6.00;91.30
44707;DHT22;30433;45.596;8.408;2023-02-05T18:56:15;6.10;90.90
44707;DHT22;30433;45.596;8.408;2023-02-05T19:02:18;6.00;91.40
44707;DHT22;30433;45.596;8.408;2023-02-05T19:08:19;5.90;91.20
44707;DHT22;30433;45.596;8.408;2023-02-05T19:14:23;6.00;91.10
44707;DHT22;30433;45.596;8.408;2023-02-05T19:20:25;5.70;91.10
44707;DHT22;30433;45.596;8.408;2023-02-05T19:26:27;5.80;91.30
44707;DHT22;30433;45.596;8.408;2023-02-05T19:32:31;6.00;91.40
44707;DHT22;30433;45.596;8.408;2023-02-05T19:38:34;5.90;91.60
44707;DHT22;30433;45.596;8.408;2023-02-05T19:44:37;5.70;92.20
44707;DHT22;30433;45.596;8.408;2023-02-05T19:50:40;5.90;92.00
44707;DHT22;30433;45.596;8.408;2023-02-05T19:56:42;5.40;92.30
44707;DHT22;30433;45.596;8.408;2023-02-05T20:02:45;5.00;92.60
44707;DHT22;30433;45.596;8.408;2023-02-05T20:08:48;5.30;93.20
44707;DHT22;30433;45.596;8.408;2023-02-05T20:14:50;5.00;92.60
44707;DHT22;30433;45.596;8.408;2023-02-05T20:20:52;5.30;92.70
44707;DHT22;30433;45.596;8.408;2023-02-05T20:26:56;5.60;92.50
44707;DHT22;30433;45.596;8.408;2023-02-05T20:32:58;5.40;91.80
44707;DHT22;30433;45.596;8.408;2023-02-05T20:39:01;5.90;91.50
44707;DHT22;30433;45.596;8.408;2023-02-05T20:45:05;5.80;91.80
44707;DHT22;30433;45.596;8.408;2023-02-05T20:51:09;5.80;91.40
44707;DHT22;30433;45.596;8.408;2023-02-05T20:57:11;5.80;91.20
44707;DHT22;30433;45.596;8.408;2023-02-05T21:03:14;5.70;91.20
44707;DHT22;30433;45.596;8.408;2023-02-05T21:09:16;5.80;91.10
44707;DHT22;30433;45.596;8.408;2023-02-05T21:15:18;5.80;91.10
44707;DHT22;30433;45.596;8.408;2023-02-05T21:21:22;5.70;91.60
44707;DHT22;30433;45.596;8.408;2023-02-05T21:27:24;5.70;91.50
44707;DHT22;30433;45.596;8.408;2023-02-05T21:33:26;5.70;91.70
44707;DHT22;30433;45.596;8.408;2023-02-05T21:39:30;6.00;91.70
44707;DHT22;30433;45.596;8.408;2023-02-05T21:45:32;5.70;91.60
44707;DHT22;30433;45.596;8.408;2023-02-05T21:51:34;5.90;92.40
44707;DHT22;30433;45.596;8.408;2023-02-05T21:57:38;5.80;93.10
44707;DHT22;30433;45.596;8.408;2023-02-05T22:03:40;5.80;92.80
44707;DHT22;30433;45.596;8.408;2023-02-05T22:09:42;5.60;92.50
44707;DHT22;30433;45.596;8.408;2023-02-05T22:15:45;5.70;92.60
44707;DHT22;30433;45.596;8.408;2023-02-05T22:21:47;5.50;92.70
44707;DHT22;30433;45.596;8.408;2023-02-05T22:27:49;5.40;92.90
44707;DHT22;30433;45.596;8.408;2023-02-05T22:33:52;5.20;92.90
44707;DHT22;30433;45.596;8.408;2023-02-05T22:39:54;5.10;92.80
44707;DHT22;30433;45.596;8.408;2023-02-05T22:46:01;5.40;92.90
44707;DHT22;30433;45.596;8.408;2023-02-05T22:52:04;5.20;93.00
44707;DHT22;30433;45.596;8.408;2023-02-05T22:58:06;5.10;93.40
44707;DHT22;30433;45.596;8.408;2023-02-05T23:04:08;5.30;92.90
44707;DHT22;30433;45.596;8.408;2023-02-05T23:10:11;5.40;93.20
44707;DHT22;30433;45.596;8.408;2023-02-05T23:16:14;5.10;92.90
44707;DHT22;30433;45.596;8.408;2023-02-05T23:22:16;5.30;92.80
44707;DHT22;30433;45.596;8.408;2023-02-05T23:28:19;5.30;93.50
44707;DHT22;30433;45.596;8.408;2023-02-05T23:34:22;5.10;93.70
44707;DHT22;30433;45.596;8.408;2023-02-05T23:40:24;5.20;93.60
44707;DHT22;30433;45.596;8.408;2023-02-05T23:46:27;5.20;94.20
44707;DHT22;30433;45.596;8.408;2023-02-05T23:52:29;5.10;94.10
44707;DHT22;30433;45.596;8.408;2023-02-05T23:58:30;5.00;94.00
